Time;durP1;ratioP1;P1;durP2;ratioP2;P2;SDS_P1;SDS_P2;PMS_P1;PMS_P2;Temp;Humidity;BMP_temperature;BMP_pressure;BME280_temperature;BME280_humidity;BME280_pressure;Samples;Min_cycle;Max_cycle;Signal;HPM_P1;HPM_P2
2021/07/13 00:00:13;;;;;;;13.90;12.50;;;18.90;99.90;;;;;;4376245;32;20508;-63
2021/07/13 00:02:47;;;;;;;13.50;12.13;;;18.90;99.90;;;;;;4365222;32;20185;-62
2021/07/13 00:05:17;;;;;;;14.37;13.00;;;19.00;99.90;;;;;;4366177;32;20179;-65
2021/07/13 00:07:45;;;;;;;13.47;12.10;;;19.00;99.90;;;;;;4361101;32;20263;-63
2021/07/13 00:10:21;;;;;;;12.40;11.30;;;19.00;99.90;;;;;;4363831;32;20217;-63
2021/07/13 00:12:48;;;;;;;14.40;12.53;;;19.00;99.90;;;;;;4369267;32;20513;-64
2021/07/13 00:15:19;;;;;;;14.23;12.73;;;19.10;99.90;;;;;;4367609;32;20664;-64
2021/07/13 00:17:46;;;;;;;15.97;12.37;;;19.00;99.90;;;;;;4364887;32;20180;-65
2021/07/13 00:20:13;;;;;;;14.77;13.27;;;19.00;99.90;;;;;;4368415;32;20172;-63
2021/07/13 00:22:40;;;;;;;15.43;13.93;;;19.00;99.90;;;;;;4376013;32;20164;-63
2021/07/13 00:25:09;;;;;;;14.30;13.00;;;19.00;99.90;;;;;;4375712;32;20157;-65
2021/07/13 00:27:37;;;;;;;16.57;14.87;;;19.00;99.90;;;;;;4376258;32;20164;-62
2021/07/13 00:30:05;;;;;;;16.97;14.97;;;18.90;99.90;;;;;;4375279;32;20198;-63
2021/07/13 00:32:31;;;;;;;16.10;14.60;;;18.90;99.90;;;;;;4375418;32;20152;-62
2021/07/13 00:34:58;;;;;;;16.40;14.70;;;18.80;99.90;;;;;;4372054;32;20213;-63
2021/07/13 00:37:25;;;;;;;16.20;14.67;;;18.90;99.90;;;;;;4361056;32;20167;-62
2021/07/13 00:39:52;;;;;;;18.40;16.63;;;18.80;99.90;;;;;;4376892;32;20650;-62
2021/07/13 00:42:19;;;;;;;15.83;14.20;;;18.80;99.90;;;;;;4375745;32;20161;-63
2021/07/13 00:44:48;;;;;;;17.73;16.03;;;18.80;99.90;;;;;;4373213;32;20182;-61
2021/07/13 00:47:19;;;;;;;15.93;14.17;;;18.90;99.90;;;;;;4375667;32;20157;-62
2021/07/13 00:49:47;;;;;;;18.37;15.60;;;18.90;99.90;;;;;;4376383;32;20527;-61
2021/07/13 00:52:14;;;;;;;17.07;15.37;;;18.90;99.90;;;;;;4376224;32;20535;-63
2021/07/13 00:54:42;;;;;;;18.10;16.30;;;19.00;99.90;;;;;;4374773;32;20220;-61
2021/07/13 00:57:11;;;;;;;19.43;17.50;;;18.90;99.90;;;;;;4369302;32;20200;-62
2021/07/13 00:59:39;;;;;;;17.70;16.00;;;19.00;99.90;;;;;;4375554;32;20172;-61
2021/07/13 01:02:09;;;;;;;19.00;17.20;;;19.00;99.90;;;;;;4374429;32;20531;-62
2021/07/13 01:04:36;;;;;;;20.40;18.33;;;18.90;99.90;;;;;;4373791;32;20169;-62
2021/07/13 01:07:08;;;;;;;19.27;17.37;;;19.00;99.90;;;;;;4368302;32;20216;-64
2021/07/13 01:09:43;;;;;;;20.23;17.77;;;18.90;99.90;;;;;;4375431;32;20586;-62
2021/07/13 01:12:23;;;;;;;19.63;17.53;;;19.00;99.90;;;;;;4375150;32;20183;-63
2021/07/13 01:14:54;;;;;;;20.03;17.97;;;19.00;99.90;;;;;;4376290;32;20206;-62
2021/07/13 01:17:29;;;;;;;21.13;19.03;;;19.00;99.90;;;;;;4362554;32;20157;-63
2021/07/13 01:20:23;;;;;;;20.93;18.93;;;19.00;99.90;;;;;;4365150;32;20219;-63
2021/07/13 01:22:54;;;;;;;20.13;18.23;;;19.00;99.90;;;;;;4373768;32;20187;-64
2021/07/13 01:25:32;;;;;;;22.00;19.40;;;19.00;99.90;;;;;;4363898;32;20183;-64
2021/07/13 01:28:04;;;;;;;21.83;19.60;;;19.00;99.90;;;;;;4373953;32;20176;-62
2021/07/13 01:30:35;;;;;;;21.83;19.73;;;19.00;99.90;;;;;;4374901;32;20171;-64
2021/07/13 01:33:07;;;;;;;23.70;21.23;;;19.00;99.90;;;;;;4375011;32;20175;-64
2021/07/13 01:35:41;;;;;;;23.63;21.13;;;18.90;99.90;;;;;;4374462;32;20567;-64
2021/07/13 01:38:10;;;;;;;22.87;20.47;;;18.90;99.90;;;;;;4361752;32;20152;-62
2021/07/13 01:40:40;;;;;;;23.63;21.13;;;18.80;99.90;;;;;;4363412;32;20520;-61
2021/07/13 01:43:10;;;;;;;22.97;20.60;;;18.80;99.90;;;;;;4375131;32;20191;-64
2021/07/13 01:45:38;;;;;;;23.53;21.23;;;18.80;99.90;;;;;;4374748;32;20175;-63
2021/07/13 01:48:06;;;;;;;25.20;22.73;;;18.70;99.90;;;;;;4373320;32;20250;-64
2021/07/13 01:50:33;;;;;;;25.43;22.77;;;18.70;99.90;;;;;;4374593;32;20226;-62
2021/07/13 01:53:01;;;;;;;25.90;23.20;;;18.70;99.90;;;;;;4375243;32;20165;-63
2021/07/13 01:55:32;;;;;;;24.73;22.23;;;18.60;99.90;;;;;;4371155;32;20179;-62
2021/07/13 01:58:01;;;;;;;24.77;22.27;;;18.60;99.90;;;;;;4364200;32;20171;-63
2021/07/13 02:00:30;;;;;;;23.83;21.33;;;18.60;99.90;;;;;;4361677;32;20268;-62
2021/07/13 02:02:58;;;;;;;23.07;20.57;;;18.50;99.90;;;;;;4374258;32;20227;-62
2021/07/13 02:05:27;;;;;;;23.07;20.73;;;18.50;99.90;;;;;;4374166;32;20462;-63
2021/07/13 02:07:58;;;;;;;24.07;21.50;;;18.40;99.90;;;;;;4367254;32;20193;-62
2021/07/13 02:10:29;;;;;;;26.93;23.90;;;18.40;99.90;;;;;;4370021;32;20216;-63
2021/07/13 02:12:55;;;;;;;27.17;24.40;;;18.40;99.90;;;;;;4374774;32;20192;-63
2021/07/13 02:15:22;;;;;;;28.57;25.57;;;18.40;99.90;;;;;;4374459;32;20172;-63
2021/07/13 02:17:51;;;;;;;29.90;26.23;;;18.40;99.90;;;;;;4368358;32;20192;-63
2021/07/13 02:20:20;;;;;;;29.13;26.00;;;18.40;99.90;;;;;;4367660;32;20239;-63
2021/07/13 02:22:47;;;;;;;30.17;27.00;;;18.40;99.90;;;;;;4375100;32;20164;-62
2021/07/13 02:25:16;;;;;;;34.10;29.07;;;18.50;99.90;;;;;;4367525;32;20227;-63
2021/07/13 02:27:48;;;;;;;32.27;28.77;;;18.40;99.90;;;;;;4359908;32;20313;-63
2021/07/13 02:30:25;;;;;;;29.53;26.43;;;18.40;99.90;;;;;;4359110;32;20891;-63
2021/07/13 02:33:02;;;;;;;31.17;27.87;;;18.40;99.90;;;;;;4359490;32;20212;-63
2021/07/13 02:35:39;;;;;;;30.03;26.80;;;18.40;99.90;;;;;;4357664;32;21209;-63
2021/07/13 02:38:12;;;;;;;32.57;29.13;;;18.40;99.90;;;;;;4356697;32;20244;-62
2021/07/13 02:40:41;;;;;;;33.03;29.40;;;18.30;99.90;;;;;;4357982;32;20687;-63
2021/07/13 02:43:18;;;;;;;30.93;27.43;;;18.30;99.90;;;;;;4359478;32;20259;-65
2021/07/13 02:45:46;;;;;;;32.47;29.00;;;18.30;99.90;;;;;;4360889;32;20260;-64
2021/07/13 02:48:15;;;;;;;36.17;29.83;;;18.30;99.90;;;;;;4366456;32;20238;-63
2021/07/13 02:50:43;;;;;;;32.97;29.43;;;18.30;99.90;;;;;;4370090;32;20164;-63
2021/07/13 02:53:13;;;;;;;33.43;28.47;;;18.20;99.90;;;;;;4377058;32;20247;-62
2021/07/13 02:55:41;;;;;;;32.23;25.73;;;18.20;99.90;;;;;;4377312;32;20208;-64
2021/07/13 02:58:09;;;;;;;34.40;28.27;;;18.30;99.90;;;;;;4376795;32;20544;-63
2021/07/13 03:00:37;;;;;;;33.67;29.67;;;18.30;99.90;;;;;;4362493;33;20168;-62
2021/07/13 03:03:04;;;;;;;32.67;28.87;;;18.40;99.90;;;;;;4362906;32;20224;-62
2021/07/13 03:05:34;;;;;;;30.03;26.57;;;18.50;99.90;;;;;;4376972;32;20175;-62
2021/07/13 03:08:02;;;;;;;33.30;29.67;;;18.60;99.90;;;;;;4376255;32;20171;-63
2021/07/13 03:10:31;;;;;;;35.87;28.63;;;18.70;99.90;;;;;;4369113;32;20194;-63
2021/07/13 03:12:59;;;;;;;38.20;32.07;;;18.70;99.90;;;;;;4377144;32;20236;-63
2021/07/13 03:15:30;;;;;;;52.83;41.13;;;18.80;99.90;;;;;;4376569;32;20240;-64
2021/07/13 03:17:58;;;;;;;54.17;42.70;;;18.90;99.90;;;;;;4376589;32;20222;-63
2021/07/13 03:20:26;;;;;;;56.73;42.70;;;18.90;99.90;;;;;;4362211;32;20200;-64
2021/07/13 03:22:55;;;;;;;54.53;43.57;;;19.00;99.90;;;;;;4370217;32;20164;-64
2021/07/13 03:25:26;;;;;;;61.50;47.87;;;18.90;99.90;;;;;;4376901;32;20208;-63
2021/07/13 03:27:53;;;;;;;61.87;46.93;;;19.00;99.90;;;;;;4376369;32;20178;-65
2021/07/13 03:30:21;;;;;;;62.80;46.87;;;18.90;99.90;;;;;;4373614;32;20212;-62
2021/07/13 03:32:50;;;;;;;65.87;47.07;;;19.00;99.90;;;;;;4376328;32;20172;-62
2021/07/13 03:35:20;;;;;;;59.70;47.77;;;19.00;99.90;;;;;;4376743;32;20199;-63
2021/07/13 03:37:47;;;;;;;55.87;43.53;;;19.10;99.90;;;;;;4376182;32;20186;-65
2021/07/13 03:40:17;;;;;;;56.53;44.03;;;19.10;99.90;;;;;;4368374;32;20188;-62
2021/07/13 03:42:45;;;;;;;54.50;43.93;;;19.20;99.90;;;;;;4366932;32;20577;-63
2021/07/13 03:45:16;;;;;;;57.87;44.37;;;19.30;99.90;;;;;;4361940;32;20173;-63
2021/07/13 03:47:47;;;;;;;60.77;46.63;;;19.30;99.90;;;;;;4366281;32;20172;-63
2021/07/13 03:50:15;;;;;;;59.67;46.20;;;19.30;99.90;;;;;;4374336;32;20160;-63
2021/07/13 03:52:43;;;;;;;57.97;46.70;;;19.40;99.90;;;;;;4377518;32;20217;-63
2021/07/13 03:55:11;;;;;;;57.60;45.30;;;19.50;99.90;;;;;;4376132;32;20176;-62
2021/07/13 03:57:39;;;;;;;63.37;47.20;;;19.40;99.90;;;;;;4374325;32;20156;-63
2021/07/13 04:00:09;;;;;;;62.17;48.23;;;19.50;99.90;;;;;;4310947;32;1957222;-63
2021/07/13 04:02:37;;;;;;;67.00;46.60;;;19.50;99.90;;;;;;4375072;32;20240;-63
2021/07/13 04:05:04;;;;;;;55.33;44.33;;;19.50;99.90;;;;;;4377944;32;20592;-64
2021/07/13 04:07:31;;;;;;;56.97;44.83;;;19.50;99.90;;;;;;4375235;32;20164;-63
2021/07/13 04:09:58;;;;;;;57.77;45.70;;;19.60;99.90;;;;;;4374514;32;20172;-63
2021/07/13 04:12:25;;;;;;;65.83;48.53;;;19.60;99.90;;;;;;4372387;32;20172;-63
2021/07/13 04:14:53;;;;;;;58.33;44.80;;;19.60;99.90;;;;;;4376336;32;20209;-64
2021/07/13 04:17:22;;;;;;;58.10;45.43;;;19.60;99.90;;;;;;4376599;32;20179;-62
2021/07/13 04:19:49;;;;;;;61.30;48.23;;;19.70;99.90;;;;;;4375364;32;20239;-62
2021/07/13 04:22:19;;;;;;;59.67;45.63;;;19.70;99.90;;;;;;4371361;32;20215;-63
2021/07/13 04:24:46;;;;;;;61.33;47.07;;;19.70;99.90;;;;;;4375677;32;20214;-63
2021/07/13 04:27:14;;;;;;;56.37;45.07;;;19.70;99.90;;;;;;4375277;32;20168;-64
2021/07/13 04:29:40;;;;;;;75.37;53.63;;;19.80;99.90;;;;;;4375469;32;20164;-62
2021/07/13 04:32:09;;;;;;;65.30;49.03;;;19.80;99.90;;;;;;4373892;32;20161;-64
2021/07/13 04:34:36;;;;;;;68.30;48.17;;;19.80;99.90;;;;;;4375367;32;20252;-62
2021/07/13 04:37:03;;;;;;;83.77;59.93;;;19.80;99.90;;;;;;4375676;32;20539;-64
2021/07/13 04:39:30;;;;;;;72.70;52.20;;;19.80;99.90;;;;;;4375434;32;20187;-63
2021/07/13 04:41:59;;;;;;;84.43;61.33;;;19.80;99.90;;;;;;4365747;32;20585;-63
2021/07/13 04:44:29;;;;;;;75.13;53.17;;;19.70;99.90;;;;;;4363181;32;20187;-62
2021/07/13 04:46:55;;;;;;;80.53;56.50;;;19.70;99.90;;;;;;4375762;32;20192;-63
2021/07/13 04:49:25;;;;;;;89.27;61.70;;;19.60;99.90;;;;;;4375630;32;20167;-63
2021/07/13 04:51:52;;;;;;;96.87;65.00;;;19.60;99.90;;;;;;4373973;32;20180;-62
2021/07/13 04:54:19;;;;;;;83.23;58.30;;;19.50;99.90;;;;;;4372358;32;20208;-62
2021/07/13 04:56:46;;;;;;;77.33;55.60;;;19.60;99.90;;;;;;4374618;32;20214;-64
2021/07/13 04:59:16;;;;;;;73.93;52.63;;;19.70;99.90;;;;;;4377311;32;20167;-62
2021/07/13 05:01:43;;;;;;;75.60;55.13;;;19.70;99.90;;;;;;4369332;32;20184;-63
2021/07/13 05:04:10;;;;;;;66.83;51.27;;;19.80;99.90;;;;;;4369802;32;20180;-63
2021/07/13 05:06:38;;;;;;;72.17;50.77;;;19.80;99.90;;;;;;4373431;32;20611;-63
2021/07/13 05:09:05;;;;;;;60.33;45.93;;;19.80;99.90;;;;;;4375256;32;20148;-63
2021/07/13 05:11:33;;;;;;;62.33;49.80;;;19.90;99.90;;;;;;4371457;32;20622;-64
2021/07/13 05:14:01;;;;;;;68.23;49.73;;;20.00;99.90;;;;;;4370160;32;20164;-65
2021/07/13 05:16:31;;;;;;;61.37;47.53;;;20.10;99.90;;;;;;4374787;32;20182;-63
2021/07/13 05:19:00;;;;;;;61.43;47.17;;;20.10;99.90;;;;;;4374804;32;20199;-63
2021/07/13 05:21:27;;;;;;;56.27;44.80;;;20.20;99.90;;;;;;4374015;32;20592;-64
2021/07/13 05:23:56;;;;;;;66.93;47.67;;;20.20;99.90;;;;;;4375196;32;20222;-62
2021/07/13 05:26:23;;;;;;;65.07;50.03;;;20.20;99.90;;;;;;4362733;32;20418;-64
2021/07/13 05:28:50;;;;;;;60.63;47.47;;;20.20;99.90;;;;;;4375093;32;20226;-61
2021/07/13 05:31:17;;;;;;;67.83;51.60;;;20.30;99.90;;;;;;4370487;32;20161;-64
2021/07/13 05:33:44;;;;;;;68.27;50.60;;;20.30;99.90;;;;;;4364889;32;20164;-62
2021/07/13 05:36:11;;;;;;;57.87;44.47;;;20.20;99.90;;;;;;4366852;32;20204;-62
2021/07/13 05:38:38;;;;;;;55.37;44.43;;;20.30;99.90;;;;;;4367345;32;20651;-62
2021/07/13 05:41:09;;;;;;;65.87;45.70;;;20.30;99.90;;;;;;4370846;32;20735;-63
2021/07/13 05:43:39;;;;;;;54.77;41.87;;;20.40;99.90;;;;;;4364222;32;20223;-63
2021/07/13 05:46:06;;;;;;;60.63;46.70;;;20.50;99.90;;;;;;4370759;32;20234;-62
2021/07/13 05:48:33;;;;;;;57.17;45.30;;;20.60;99.90;;;;;;4363589;32;20180;-63
2021/07/13 05:50:59;;;;;;;59.00;44.10;;;20.60;99.90;;;;;;4371133;32;20181;-63
2021/07/13 05:53:38;;;;;;;60.67;44.30;;;20.60;99.90;;;;;;4365462;32;20234;-65
2021/07/13 05:56:07;;;;;;;53.57;39.83;;;20.60;99.90;;;;;;4372193;32;20180;-61
2021/07/13 05:58:35;;;;;;;71.77;49.17;;;20.70;99.90;;;;;;4373826;32;20172;-65
2021/07/13 06:01:07;;;;;;;61.90;44.70;;;20.60;99.90;;;;;;4373456;32;20180;-64
2021/07/13 06:03:34;;;;;;;59.07;43.53;;;20.70;99.90;;;;;;4370560;32;20164;-63
2021/07/13 06:06:01;;;;;;;60.90;46.83;;;20.70;99.90;;;;;;4373640;32;20190;-65
2021/07/13 06:08:28;;;;;;;57.73;45.30;;;20.70;99.90;;;;;;4371743;32;20653;-63
2021/07/13 06:10:55;;;;;;;56.57;42.87;;;20.80;99.90;;;;;;4372165;32;20224;-63
2021/07/13 06:13:22;;;;;;;73.43;51.77;;;20.80;99.90;;;;;;4372780;32;20202;-64
2021/07/13 06:15:50;;;;;;;72.33;49.97;;;20.80;99.90;;;;;;4372977;32;20469;-65
2021/07/13 06:18:17;;;;;;;74.30;52.23;;;20.50;99.90;;;;;;4374664;32;20215;-63
2021/07/13 06:20:44;;;;;;;70.37;50.20;;;20.50;99.90;;;;;;4376012;32;20173;-65
2021/07/13 06:23:11;;;;;;;77.07;53.27;;;20.50;99.90;;;;;;4375672;32;20652;-63
2021/07/13 06:25:38;;;;;;;71.17;50.20;;;20.40;99.90;;;;;;4376546;32;20622;-64
2021/07/13 06:28:05;;;;;;;76.80;54.70;;;20.30;99.90;;;;;;4376904;32;20156;-63
2021/07/13 06:30:34;;;;;;;84.33;55.43;;;20.30;99.90;;;;;;4377746;32;20183;-63
2021/07/13 06:33:02;;;;;;;72.57;48.80;;;20.20;99.90;;;;;;4374037;32;20179;-62
2021/07/13 06:35:30;;;;;;;67.40;47.83;;;20.40;99.90;;;;;;4376431;32;20160;-63
2021/07/13 06:37:59;;;;;;;64.27;46.63;;;20.50;99.90;;;;;;4376536;32;20171;-64
2021/07/13 06:40:27;;;;;;;61.73;45.43;;;20.70;99.90;;;;;;4376623;32;20180;-63
2021/07/13 06:42:54;;;;;;;65.50;44.40;;;20.80;99.90;;;;;;4376382;32;20156;-63
2021/07/13 06:45:21;;;;;;;69.33;48.10;;;20.90;99.90;;;;;;4375530;32;20182;-62
2021/07/13 06:47:53;;;;;;;72.70;49.27;;;20.70;99.90;;;;;;4375648;32;20187;-62
2021/07/13 06:50:22;;;;;;;74.73;52.60;;;20.50;99.90;;;;;;4375209;32;20165;-64
2021/07/13 06:52:49;;;;;;;72.03;50.40;;;20.50;99.90;;;;;;4374592;32;20161;-64
2021/07/13 06:55:15;;;;;;;76.10;51.40;;;20.50;99.90;;;;;;4374215;32;20228;-63
2021/07/13 06:57:42;;;;;;;66.13;45.63;;;20.50;99.90;;;;;;4376512;32;20175;-62
2021/07/13 07:00:11;;;;;;;54.43;40.80;;;20.60;99.90;;;;;;4375531;32;20187;-64
2021/07/13 07:02:38;;;;;;;56.90;41.23;;;20.80;99.90;;;;;;4375989;32;20226;-64
2021/07/13 07:05:05;;;;;;;51.77;39.03;;;20.90;99.90;;;;;;4374088;32;20198;-63
2021/07/13 07:07:34;;;;;;;58.47;42.23;;;20.90;99.90;;;;;;4375486;32;20522;-62
2021/07/13 07:10:00;;;;;;;62.50;44.10;;;21.00;99.90;;;;;;4375477;32;20214;-65
2021/07/13 07:12:27;;;;;;;54.37;40.40;;;21.00;99.90;;;;;;4375711;32;20681;-63
2021/07/13 07:14:54;;;;;;;57.63;42.47;;;21.10;99.90;;;;;;4375322;32;20236;-64
2021/07/13 07:17:21;;;;;;;50.47;39.40;;;20.90;99.90;;;;;;4375384;32;20186;-63
2021/07/13 07:19:48;;;;;;;49.53;36.40;;;21.10;99.90;;;;;;4375055;32;20200;-62
2021/07/13 07:22:14;;;;;;;50.70;37.87;;;21.30;99.90;;;;;;4374726;32;20164;-64
2021/07/13 07:24:43;;;;;;;50.87;37.73;;;21.50;99.90;;;;;;4375234;32;20679;-64
2021/07/13 07:27:09;;;;;;;52.27;38.80;;;21.70;99.90;;;;;;4375266;32;20187;-63
2021/07/13 07:29:36;;;;;;;44.47;36.40;;;21.70;99.90;;;;;;4375092;32;20450;-61
2021/07/13 07:32:04;;;;;;;43.27;33.60;;;21.70;99.90;;;;;;4375066;32;20180;-63
2021/07/13 07:34:30;;;;;;;40.87;32.53;;;21.90;99.90;;;;;;4374326;32;20156;-63
2021/07/13 07:36:57;;;;;;;46.03;33.93;;;21.90;99.90;;;;;;4377051;32;20215;-62
2021/07/13 07:39:24;;;;;;;38.60;30.77;;;22.10;99.90;;;;;;4375470;32;20658;-62
2021/07/13 07:41:54;;;;;;;43.53;33.27;;;22.20;99.90;;;;;;4375142;32;20178;-63
2021/07/13 07:44:23;;;;;;;45.27;32.77;;;22.20;99.90;;;;;;4374664;32;20220;-64
2021/07/13 07:46:50;;;;;;;39.20;30.97;;;22.10;99.90;;;;;;4374307;32;20182;-62
2021/07/13 07:49:17;;;;;;;38.00;30.23;;;22.10;99.90;;;;;;4375642;32;20175;-62
2021/07/13 07:51:44;;;;;;;41.43;32.63;;;22.10;99.90;;;;;;4373183;32;20651;-61
2021/07/13 07:54:11;;;;;;;39.37;28.83;;;22.10;99.90;;;;;;4374445;32;20160;-62
2021/07/13 07:56:38;;;;;;;36.97;29.50;;;22.30;99.90;;;;;;4373698;32;20180;-65
2021/07/13 07:59:06;;;;;;;43.20;32.83;;;22.60;99.90;;;;;;4375790;32;20164;-65
2021/07/13 08:01:33;;;;;;;34.43;28.47;;;22.70;99.90;;;;;;4375704;32;20209;-64
2021/07/13 08:04:00;;;;;;;36.67;28.90;;;22.80;99.90;;;;;;4375298;32;20164;-64
2021/07/13 08:06:29;;;;;;;39.10;29.70;;;22.80;99.90;;;;;;4374298;32;20253;-63
2021/07/13 08:08:56;;;;;;;34.97;29.03;;;22.80;99.90;;;;;;4375493;32;20179;-64
2021/07/13 08:11:23;;;;;;;40.93;30.23;;;22.80;99.90;;;;;;4376483;32;20160;-63
2021/07/13 08:13:51;;;;;;;37.47;28.37;;;22.70;99.90;;;;;;4375390;32;20186;-65
2021/07/13 08:16:19;;;;;;;36.50;29.00;;;22.70;99.90;;;;;;4375032;32;20200;-63
2021/07/13 08:18:46;;;;;;;36.87;30.27;;;22.70;99.90;;;;;;4375766;32;20191;-64
2021/07/13 08:21:15;;;;;;;38.30;29.80;;;22.60;99.90;;;;;;4372281;32;20268;-64
2021/07/13 08:23:42;;;;;;;39.77;31.53;;;22.40;99.90;;;;;;4374713;32;20161;-63
2021/07/13 08:26:09;;;;;;;40.63;29.80;;;22.30;99.90;;;;;;4375639;32;20187;-64
2021/07/13 08:28:35;;;;;;;37.17;30.03;;;22.30;99.90;;;;;;4374285;32;20157;-63
2021/07/13 08:31:02;;;;;;;39.07;30.70;;;22.20;99.90;;;;;;4374876;32;20186;-62
2021/07/13 08:33:30;;;;;;;37.97;29.93;;;22.20;99.90;;;;;;4374165;32;20211;-63
2021/07/13 08:35:59;;;;;;;33.40;27.33;;;22.10;99.90;;;;;;4374211;32;20159;-65
2021/07/13 08:38:26;;;;;;;37.23;28.53;;;22.20;99.90;;;;;;4374373;32;20203;-64
2021/07/13 08:40:53;;;;;;;37.53;30.63;;;22.20;99.90;;;;;;4372330;32;20210;-63
2021/07/13 08:43:24;;;;;;;32.57;26.70;;;22.20;99.90;;;;;;4373607;32;20499;-64
2021/07/13 08:45:53;;;;;;;32.97;27.07;;;22.40;99.90;;;;;;4375804;32;20159;-63
2021/07/13 08:48:22;;;;;;;32.93;25.30;;;22.50;99.90;;;;;;4374545;32;20465;-63
2021/07/13 08:50:55;;;;;;;33.70;27.70;;;22.50;99.90;;;;;;4373881;32;20602;-63
2021/07/13 08:53:21;;;;;;;33.37;26.07;;;22.40;99.90;;;;;;4373185;32;20511;-63
2021/07/13 08:55:48;;;;;;;34.00;28.50;;;22.30;99.90;;;;;;4375459;32;20242;-62
2021/07/13 08:58:16;;;;;;;38.80;30.70;;;22.10;99.90;;;;;;4373837;32;20218;-62
2021/07/13 09:00:43;;;;;;;37.10;30.97;;;21.80;99.90;;;;;;4374672;32;20175;-63
2021/07/13 09:03:13;;;;;;;38.53;31.27;;;21.80;99.90;;;;;;4374102;32;20588;-64
2021/07/13 09:05:51;;;;;;;36.23;29.33;;;21.70;99.90;;;;;;4373385;32;20163;-64
2021/07/13 09:08:23;;;;;;;38.40;31.17;;;21.70;99.90;;;;;;4373340;32;20203;-63
2021/07/13 09:11:02;;;;;;;41.13;31.87;;;21.60;99.90;;;;;;4374261;32;20164;-64
2021/07/13 09:13:31;;;;;;;41.00;32.47;;;21.50;99.90;;;;;;4374002;32;20216;-62
2021/07/13 09:16:02;;;;;;;40.50;31.33;;;21.40;99.90;;;;;;4372769;32;20196;-64
2021/07/13 09:18:31;;;;;;;33.83;27.10;;;21.30;99.90;;;;;;4374030;32;20157;-61
2021/07/13 09:21:12;;;;;;;39.30;31.47;;;21.20;99.90;;;;;;4374024;32;20232;-63
2021/07/13 09:24:00;;;;;;;38.23;30.73;;;21.20;99.90;;;;;;4372881;32;20176;-63
2021/07/13 09:26:38;;;;;;;38.03;30.47;;;21.00;99.90;;;;;;4371765;32;20191;-63
2021/07/13 09:29:05;;;;;;;37.70;30.73;;;21.00;99.90;;;;;;4373489;32;20211;-63
2021/07/13 09:31:33;;;;;;;40.57;30.97;;;21.00;99.90;;;;;;4372445;32;20164;-63
2021/07/13 09:33:59;;;;;;;39.67;31.70;;;21.10;99.90;;;;;;4370533;32;20255;-63
2021/07/13 09:36:29;;;;;;;36.97;29.47;;;21.20;99.90;;;;;;4373802;32;20174;-62
2021/07/13 09:38:56;;;;;;;35.20;28.87;;;21.20;99.90;;;;;;4372577;32;20172;-62
2021/07/13 09:41:24;;;;;;;38.77;31.27;;;21.30;99.90;;;;;;4373673;32;20227;-63
2021/07/13 09:43:53;;;;;;;35.93;28.93;;;21.40;99.90;;;;;;4370126;32;20450;-63
2021/07/13 09:46:24;;;;;;;37.57;30.27;;;21.40;99.90;;;;;;4366129;32;20267;-63
2021/07/13 09:49:20;;;;;;;36.57;30.27;;;21.40;99.90;;;;;;4362883;32;20616;-63
2021/07/13 09:51:56;;;;;;;35.43;29.83;;;21.40;99.90;;;;;;4364318;32;20196;-64
2021/07/13 09:54:43;;;;;;;40.23;31.90;;;21.50;99.90;;;;;;4364576;32;20156;-63
2021/07/13 09:57:23;;;;;;;44.43;34.90;;;21.40;99.90;;;;;;4365274;32;20214;-63
2021/07/13 09:59:51;;;;;;;41.17;33.00;;;21.20;99.90;;;;;;4366261;32;20219;-64
2021/07/13 10:02:23;;;;;;;43.47;32.50;;;21.10;99.90;;;;;;4365255;32;20672;-63
2021/07/13 10:04:51;;;;;;;39.93;31.03;;;21.00;99.90;;;;;;4367753;32;20223;-64
2021/07/13 10:07:21;;;;;;;45.47;33.47;;;21.10;99.90;;;;;;4371887;32;20555;-63
2021/07/13 10:09:50;;;;;;;42.20;32.73;;;21.20;99.90;;;;;;4375092;32;20175;-63
2021/07/13 10:12:18;;;;;;;36.33;29.13;;;21.30;99.90;;;;;;4377902;32;20184;-66
2021/07/13 10:14:47;;;;;;;36.53;29.40;;;21.50;99.90;;;;;;4377015;32;20503;-63
2021/07/13 10:17:16;;;;;;;41.20;31.43;;;21.60;99.90;;;;;;4377092;32;20235;-63
2021/07/13 10:19:47;;;;;;;36.30;29.10;;;21.60;99.90;;;;;;4377264;32;20176;-64
2021/07/13 10:22:16;;;;;;;37.30;30.20;;;21.60;99.90;;;;;;4377267;32;20171;-64
2021/07/13 10:24:47;;;;;;;37.67;30.70;;;21.60;99.90;;;;;;4379642;32;20265;-63
2021/07/13 10:27:16;;;;;;;41.50;33.23;;;21.50;99.90;;;;;;4374174;32;20194;-63
2021/07/13 10:29:44;;;;;;;39.17;30.57;;;21.50;99.90;;;;;;4377077;32;20144;-63
2021/07/13 10:32:32;;;;;;;35.93;29.77;;;21.50;99.90;;;;;;4378307;32;20176;-64
2021/07/13 10:35:04;;;;;;;36.73;30.93;;;21.40;99.90;;;;;;4377102;32;20261;-63
2021/07/13 10:40:54;;;;;;;35.60;28.00;;;21.30;99.90;;;;;;4376781;32;20216;-64
2021/07/13 10:43:23;;;;;;;33.00;27.30;;;21.30;99.90;;;;;;4376057;32;20182;-64
2021/07/13 10:46:06;;;;;;;33.07;27.37;;;21.30;99.90;;;;;;4376725;32;20537;-63
2021/07/13 10:48:33;;;;;;;38.73;30.03;;;21.40;99.90;;;;;;4377697;32;20152;-63
2021/07/13 10:51:03;;;;;;;32.33;26.00;;;21.60;99.90;;;;;;4376532;32;20176;-63
2021/07/13 10:53:32;;;;;;;34.93;26.97;;;21.70;99.90;;;;;;4374595;32;20156;-64
2021/07/13 10:56:06;;;;;;;32.93;27.13;;;21.80;99.90;;;;;;4375537;32;20590;-63
2021/07/13 10:58:50;;;;;;;30.70;25.50;;;21.80;99.90;;;;;;4374980;32;20164;-63
2021/07/13 11:01:21;;;;;;;31.93;26.87;;;21.80;99.90;;;;;;4376739;32;20181;-63
2021/07/13 11:04:05;;;;;;;31.33;25.57;;;21.70;99.90;;;;;;4375229;32;20457;-64
2021/07/13 11:06:54;;;;;;;29.63;25.17;;;21.60;99.90;;;;;;4375284;32;20594;-64
2021/07/13 11:09:35;;;;;;;34.27;27.80;;;21.50;99.90;;;;;;4375838;32;20587;-64
2021/07/13 11:12:13;;;;;;;28.57;24.60;;;21.40;99.90;;;;;;4376034;32;20216;-64
2021/07/13 11:15:08;;;;;;;34.93;28.07;;;21.30;99.90;;;;;;4376258;32;20171;-63
2021/07/13 11:17:37;;;;;;;38.43;28.77;;;21.00;99.90;;;;;;4373522;32;20224;-62
2021/07/13 11:20:10;;;;;;;34.10;26.80;;;20.70;99.90;;;;;;4376761;32;20156;-63
2021/07/13 11:22:40;;;;;;;37.23;28.80;;;20.60;99.90;;;;;;4376295;32;20183;-64
2021/07/13 11:25:08;;;;;;;39.23;30.17;;;20.40;99.90;;;;;;4377316;32;20569;-63
2021/07/13 11:27:37;;;;;;;44.00;31.10;;;20.50;99.90;;;;;;4376003;32;20187;-63
2021/07/13 11:30:05;;;;;;;42.77;32.00;;;20.50;99.90;;;;;;4377329;32;20155;-61
2021/07/13 11:32:31;;;;;;;39.70;31.83;;;20.40;99.90;;;;;;4376463;32;20160;-62
2021/07/13 11:34:58;;;;;;;38.93;30.00;;;20.40;99.90;;;;;;4376417;32;20200;-61
2021/07/13 11:37:25;;;;;;;43.03;32.37;;;20.40;99.90;;;;;;4374570;32;20180;-63
2021/07/13 11:40:07;;;;;;;40.83;32.07;;;20.50;99.90;;;;;;4375746;32;20601;-63
2021/07/13 11:42:34;;;;;;;39.10;29.00;;;20.50;99.90;;;;;;4374415;32;20156;-62
2021/07/13 11:45:05;;;;;;;40.60;30.13;;;20.40;99.90;;;;;;4376258;32;20611;-63
2021/07/13 11:47:32;;;;;;;38.70;29.60;;;20.30;99.90;;;;;;4372968;32;20179;-62
2021/07/13 11:49:59;;;;;;;39.67;31.13;;;20.40;99.90;;;;;;4377240;32;20176;-61
2021/07/13 11:52:28;;;;;;;39.03;31.67;;;20.40;99.90;;;;;;4375710;32;20587;-61
2021/07/13 11:54:57;;;;;;;40.37;31.13;;;20.50;99.90;;;;;;4375701;32;20173;-62
2021/07/13 11:57:24;;;;;;;40.37;31.90;;;20.50;99.90;;;;;;4375292;32;20203;-61
2021/07/13 11:59:51;;;;;;;38.97;30.50;;;20.30;99.90;;;;;;4373626;32;20623;-62
2021/07/13 12:02:19;;;;;;;38.17;28.97;;;20.20;99.90;;;;;;4375634;32;20168;-61
2021/07/13 12:04:48;;;;;;;39.67;31.07;;;20.10;99.90;;;;;;4374784;32;20160;-62
2021/07/13 12:07:16;;;;;;;38.33;28.73;;;20.10;99.90;;;;;;4374187;32;20480;-61
2021/07/13 12:09:43;;;;;;;36.90;27.27;;;20.20;99.90;;;;;;4374516;32;20480;-60
2021/07/13 12:12:15;;;;;;;40.00;30.63;;;20.30;99.90;;;;;;4375101;32;20199;-61
2021/07/13 12:14:43;;;;;;;35.87;28.93;;;20.30;99.90;;;;;;4375710;32;20552;-62
2021/07/13 12:17:10;;;;;;;37.93;28.97;;;20.40;99.90;;;;;;4372941;32;20275;-63
2021/07/13 12:19:39;;;;;;;38.00;28.83;;;20.50;99.90;;;;;;4375984;32;20464;-62
2021/07/13 12:22:08;;;;;;;32.27;27.10;;;20.80;99.90;;;;;;4375290;32;20164;-63
2021/07/13 12:24:36;;;;;;;36.03;28.60;;;21.10;99.90;;;;;;4374970;32;20266;-64
2021/07/13 12:27:06;;;;;;;32.60;26.00;;;21.20;99.90;;;;;;4375002;32;20536;-64
2021/07/13 12:29:38;;;;;;;31.30;26.10;;;21.20;99.90;;;;;;4373644;32;20623;-63
2021/07/13 12:32:07;;;;;;;30.30;23.30;;;21.30;99.90;;;;;;4376374;32;20175;-63
2021/07/13 12:34:42;;;;;;;33.80;26.30;;;21.40;99.90;;;;;;4375236;32;20161;-63
2021/07/13 12:37:11;;;;;;;28.50;22.67;;;21.50;99.90;;;;;;4373586;32;20571;-63
2021/07/13 12:39:40;;;;;;;29.10;22.07;;;21.80;99.90;;;;;;4374243;32;20216;-65